Time;durP1;ratioP1;P1;durP2;ratioP2;P2;SDS_P1;SDS_P2;PMS_P1;PMS_P2;Temp;Humidity;BMP_temperature;BMP_pressure;BME280_temperature;BME280_humidity;BME280_pressure;Samples;Min_cycle;Max_cycle;Signal;HPM_P1;HPM_P2
2023/07/18 00:00:36;;;;;;;9.87;7.07;;;;;;;;;;5083319;28;20467;-62
2023/07/18 00:03:03;;;;;;;11.10;8.20;;;;;;;;;;5081955;28;20486;-62
2023/07/18 00:05:30;;;;;;;9.87;6.80;;;;;;;;;;5082201;28;20459;-62
2023/07/18 00:07:56;;;;;;;12.10;7.43;;;;;;;;;;5083302;28;20509;-61
2023/07/18 00:10:23;;;;;;;12.43;7.97;;;;;;;;;;5082413;28;20542;-62
2023/07/18 00:12:49;;;;;;;11.77;8.60;;;;;;;;;;5083206;28;20515;-61
2023/07/18 00:15:18;;;;;;;12.20;7.87;;;;;;;;;;5082989;28;20986;-62
2023/07/18 00:17:44;;;;;;;9.40;7.53;;;;;;;;;;5083157;28;20527;-62
2023/07/18 00:20:12;;;;;;;10.47;7.50;;;;;;;;;;5083047;28;21045;-62
2023/07/18 00:22:40;;;;;;;9.50;7.03;;;;;;;;;;5083149;28;20448;-62
2023/07/18 00:25:09;;;;;;;8.53;6.63;;;;;;;;;;5082110;28;20486;-62
2023/07/18 00:27:36;;;;;;;13.03;7.57;;;;;;;;;;5083492;28;20444;-62
2023/07/18 00:30:06;;;;;;;9.00;6.40;;;;;;;;;;5082852;28;20448;-62
2023/07/18 00:32:34;;;;;;;10.93;8.10;;;;;;;;;;5082357;28;20917;-62
2023/07/18 00:35:00;;;;;;;11.50;7.50;;;;;;;;;;5081892;28;20534;-61
2023/07/18 00:37:27;;;;;;;9.13;7.90;;;;;;;;;;5082189;28;20850;-62
2023/07/18 00:39:53;;;;;;;11.73;9.00;;;;;;;;;;5082113;28;20552;-62
2023/07/18 00:42:20;;;;;;;9.23;7.50;;;;;;;;;;5082903;28;20444;-61
2023/07/18 00:44:49;;;;;;;11.43;8.23;;;;;;;;;;5082548;28;20487;-62
2023/07/18 00:47:15;;;;;;;10.50;7.40;;;;;;;;;;5082932;28;20451;-62
2023/07/18 00:49:43;;;;;;;7.53;6.50;;;;;;;;;;5082207;28;20484;-62
2023/07/18 00:52:10;;;;;;;10.63;7.57;;;;;;;;;;5082527;28;20472;-62
2023/07/18 00:54:36;;;;;;;9.27;7.10;;;;;;;;;;5081831;28;20535;-62
2023/07/18 00:57:03;;;;;;;10.07;7.70;;;;;;;;;;5082198;28;20480;-62
2023/07/18 00:59:30;;;;;;;8.27;6.90;;;;;;;;;;5081677;28;20448;-62
2023/07/18 01:01:57;;;;;;;9.87;7.93;;;;;;;;;;5082201;28;20494;-62
2023/07/18 01:04:23;;;;;;;13.37;7.63;;;;;;;;;;5082084;28;20479;-62
2023/07/18 01:06:52;;;;;;;10.27;7.33;;;;;;;;;;5081514;28;20549;-62
2023/07/18 01:09:19;;;;;;;7.53;6.50;;;;;;;;;;5081813;28;20525;-62
2023/07/18 01:11:45;;;;;;;11.80;7.33;;;;;;;;;;5082224;28;20451;-62
2023/07/18 01:14:11;;;;;;;11.03;7.47;;;;;;;;;;5081921;28;20495;-62
2023/07/18 01:16:38;;;;;;;11.13;8.87;;;;;;;;;;5081855;28;20551;-62
2023/07/18 01:19:05;;;;;;;12.07;7.40;;;;;;;;;;5082282;28;20439;-62
2023/07/18 01:21:32;;;;;;;10.60;6.90;;;;;;;;;;5082100;28;20460;-62
2023/07/18 01:23:59;;;;;;;10.13;7.67;;;;;;;;;;5081287;28;20520;-62
2023/07/18 01:26:25;;;;;;;9.57;7.97;;;;;;;;;;5082004;28;20461;-62
2023/07/18 01:28:52;;;;;;;9.40;7.57;;;;;;;;;;5082319;28;20486;-62
2023/07/18 01:31:18;;;;;;;7.70;6.53;;;;;;;;;;5082171;28;20889;-62
2023/07/18 01:33:46;;;;;;;9.30;5.83;;;;;;;;;;5081471;28;20448;-62
2023/07/18 01:36:13;;;;;;;10.60;7.37;;;;;;;;;;5080725;28;20536;-62
2023/07/18 01:38:40;;;;;;;8.67;6.83;;;;;;;;;;5081810;28;20539;-62
2023/07/18 01:41:07;;;;;;;10.70;7.03;;;;;;;;;;5081024;28;20591;-62
2023/07/18 01:43:34;;;;;;;10.90;7.80;;;;;;;;;;5081279;28;20456;-62
2023/07/18 01:46:01;;;;;;;14.33;8.00;;;;;;;;;;5081160;28;20453;-62
2023/07/18 01:48:28;;;;;;;9.70;8.20;;;;;;;;;;5081515;28;20470;-62
2023/07/18 01:50:54;;;;;;;14.30;8.93;;;;;;;;;;5081335;28;20975;-62
2023/07/18 01:53:20;;;;;;;11.23;8.73;;;;;;;;;;5080964;28;20788;-62
2023/07/18 01:55:49;;;;;;;13.70;7.63;;;;;;;;;;5080091;28;21063;-62
2023/07/18 01:58:16;;;;;;;10.77;8.77;;;;;;;;;;5081248;28;20473;-62
2023/07/18 02:00:42;;;;;;;13.63;8.40;;;;;;;;;;5081183;28;20532;-62
2023/07/18 02:03:08;;;;;;;11.67;8.23;;;;;;;;;;5080459;28;20487;-62
2023/07/18 02:05:35;;;;;;;10.67;8.63;;;;;;;;;;5079595;28;21154;-62
2023/07/18 02:08:01;;;;;;;13.07;8.93;;;;;;;;;;5081093;28;20459;-62
2023/07/18 02:10:28;;;;;;;14.80;8.90;;;;;;;;;;5080115;28;20456;-62
2023/07/18 02:12:57;;;;;;;10.07;8.73;;;;;;;;;;5068912;28;20493;-62
2023/07/18 02:15:23;;;;;;;13.47;8.77;;;;;;;;;;5080293;28;20479;-61
2023/07/18 02:17:51;;;;;;;12.00;9.23;;;;;;;;;;5080917;28;20444;-62
2023/07/18 02:20:17;;;;;;;13.43;8.37;;;;;;;;;;5080732;28;20459;-62
2023/07/18 02:22:44;;;;;;;9.60;8.10;;;;;;;;;;5080865;28;20527;-62
2023/07/18 02:25:11;;;;;;;13.10;8.97;;;;;;;;;;5080056;28;20953;-62
2023/07/18 02:27:38;;;;;;;9.73;8.40;;;;;;;;;;5080968;28;20439;-62
2023/07/18 02:30:08;;;;;;;12.07;8.37;;;;;;;;;;5080665;28;20535;-62
2023/07/18 02:32:35;;;;;;;13.40;8.30;;;;;;;;;;5080520;28;20498;-62
2023/07/18 02:35:01;;;;;;;13.17;8.20;;;;;;;;;;5080125;28;20515;-62
2023/07/18 02:37:28;;;;;;;14.40;8.60;;;;;;;;;;5080165;28;20443;-62
2023/07/18 02:39:56;;;;;;;13.47;8.70;;;;;;;;;;5079947;28;20715;-62
2023/07/18 02:42:25;;;;;;;11.30;8.27;;;;;;;;;;5080685;28;20523;-62
2023/07/18 02:44:51;;;;;;;9.57;8.30;;;;;;;;;;5080568;28;20456;-62
2023/07/18 02:47:19;;;;;;;16.33;8.30;;;;;;;;;;5080553;28;21146;-62
2023/07/18 02:49:45;;;;;;;11.70;7.47;;;;;;;;;;5074793;28;20527;-62
2023/07/18 02:52:12;;;;;;;13.10;8.90;;;;;;;;;;5080332;28;20527;-62
2023/07/18 02:54:39;;;;;;;12.50;8.90;;;;;;;;;;5080026;28;20479;-62
2023/07/18 02:57:05;;;;;;;10.40;7.73;;;;;;;;;;5080325;28;20507;-62
2023/07/18 02:59:32;;;;;;;12.10;9.10;;;;;;;;;;5080479;28;20463;-62
2023/07/18 03:01:59;;;;;;;12.13;8.20;;;;;;;;;;5080115;28;20458;-62
2023/07/18 03:04:27;;;;;;;15.07;8.90;;;;;;;;;;5080073;28;20458;-62
2023/07/18 03:06:54;;;;;;;11.50;8.00;;;;;;;;;;5079566;28;20717;-62
2023/07/18 03:09:21;;;;;;;9.60;8.20;;;;;;;;;;5079928;28;20480;-62
2023/07/18 03:11:48;;;;;;;12.83;9.10;;;;;;;;;;5080247;28;20895;-62
2023/07/18 03:14:14;;;;;;;15.00;8.13;;;;;;;;;;5080171;28;20459;-62
2023/07/18 03:16:41;;;;;;;11.53;7.50;;;;;;;;;;5080076;28;20523;-62
2023/07/18 03:19:09;;;;;;;10.60;8.07;;;;;;;;;;5080153;28;20519;-62
2023/07/18 03:21:36;;;;;;;14.13;8.00;;;;;;;;;;5081320;28;20471;-62
2023/07/18 03:24:03;;;;;;;10.70;6.90;;;;;;;;;;5083957;28;20483;-62
2023/07/18 03:26:29;;;;;;;8.93;7.00;;;;;;;;;;5083884;28;20534;-61
2023/07/18 03:28:56;;;;;;;8.37;7.13;;;;;;;;;;5084404;28;20470;-62
2023/07/18 03:31:22;;;;;;;11.33;6.80;;;;;;;;;;5074666;28;20448;-62
2023/07/18 03:33:49;;;;;;;11.70;7.00;;;;;;;;;;5081970;28;20468;-62
2023/07/18 03:36:15;;;;;;;8.23;6.83;;;;;;;;;;5083253;28;20519;-62
2023/07/18 03:38:43;;;;;;;10.40;7.50;;;;;;;;;;5084190;28;20452;-62
2023/07/18 03:41:09;;;;;;;14.40;7.83;;;;;;;;;;5083614;28;20486;-62
2023/07/18 03:43:35;;;;;;;12.00;8.03;;;;;;;;;;5077842;28;20487;-62
2023/07/18 03:46:02;;;;;;;11.73;8.30;;;;;;;;;;5082600;28;20830;-62
2023/07/18 03:48:28;;;;;;;12.50;8.87;;;;;;;;;;5082261;28;20518;-62
2023/07/18 03:50:55;;;;;;;12.33;9.00;;;;;;;;;;5083035;28;20471;-62
2023/07/18 03:53:21;;;;;;;11.50;8.67;;;;;;;;;;5082413;28;20539;-62
2023/07/18 03:55:49;;;;;;;15.87;9.67;;;;;;;;;;5082011;28;20567;-62
2023/07/18 03:58:16;;;;;;;16.23;9.43;;;;;;;;;;5079993;28;20443;-62
2023/07/18 04:00:43;;;;;;;14.40;9.10;;;;;;;;;;5082532;28;20452;-62
2023/07/18 04:03:13;;;;;;;12.30;7.60;;;;;;;;;;5082610;28;20439;-62
2023/07/18 04:05:40;;;;;;;12.77;8.10;;;;;;;;;;5077076;28;20497;-62
2023/07/18 04:08:06;;;;;;;11.53;8.10;;;;;;;;;;5082700;28;20507;-62
2023/07/18 04:10:33;;;;;;;13.70;7.50;;;;;;;;;;5081516;28;20455;-62
2023/07/18 04:13:00;;;;;;;12.67;7.77;;;;;;;;;;5082215;28;20443;-62
2023/07/18 04:15:27;;;;;;;15.07;8.13;;;;;;;;;;5081568;28;20542;-62
2023/07/18 04:17:53;;;;;;;13.90;7.47;;;;;;;;;;5069214;28;20482;-62
2023/07/18 04:20:21;;;;;;;11.60;7.10;;;;;;;;;;5080107;28;21019;-62
2023/07/18 04:22:48;;;;;;;12.80;5.97;;;;;;;;;;5081773;28;20478;-62
2023/07/18 04:25:14;;;;;;;18.57;6.67;;;;;;;;;;5081114;28;20452;-62
2023/07/18 04:27:40;;;;;;;10.40;5.90;;;;;;;;;;5080634;28;20471;-62
2023/07/18 04:30:10;;;;;;;11.10;6.57;;;;;;;;;;5081352;28;20515;-62
2023/07/18 04:32:36;;;;;;;9.57;5.40;;;;;;;;;;5080358;28;20459;-62
2023/07/18 04:35:03;;;;;;;9.60;6.30;;;;;;;;;;5079799;28;20547;-62
2023/07/18 04:37:29;;;;;;;7.53;5.30;;;;;;;;;;5080945;28;20558;-62
2023/07/18 04:39:56;;;;;;;6.83;5.37;;;;;;;;;;5080567;28;20542;-62
2023/07/18 04:42:22;;;;;;;9.80;5.70;;;;;;;;;;5080575;28;20476;-62
2023/07/18 04:44:48;;;;;;;9.83;6.10;;;;;;;;;;5080679;28;20462;-62
2023/07/18 04:47:16;;;;;;;11.03;6.23;;;;;;;;;;5081617;28;20531;-62
2023/07/18 04:49:43;;;;;;;12.20;5.80;;;;;;;;;;5080487;28;20478;-62
2023/07/18 04:52:09;;;;;;;9.07;5.40;;;;;;;;;;5080804;28;20483;-62
2023/07/18 04:54:37;;;;;;;11.03;5.60;;;;;;;;;;5080083;28;20520;-62
2023/07/18 04:57:04;;;;;;;8.37;5.47;;;;;;;;;;5079754;28;20859;-62
2023/07/18 04:59:30;;;;;;;9.00;5.47;;;;;;;;;;5080787;28;20486;-62
2023/07/18 05:01:56;;;;;;;8.30;5.30;;;;;;;;;;5076748;28;20523;-62
2023/07/18 05:04:24;;;;;;;7.83;4.93;;;;;;;;;;5074378;28;20506;-62
2023/07/18 05:06:51;;;;;;;7.93;4.77;;;;;;;;;;5080063;28;20448;-62
2023/07/18 05:09:17;;;;;;;7.50;5.17;;;;;;;;;;5080579;28;20479;-63
2023/07/18 05:11:44;;;;;;;7.43;4.93;;;;;;;;;;5079890;28;20883;-63
2023/07/18 05:14:10;;;;;;;6.37;4.60;;;;;;;;;;5080673;28;20452;-63
2023/07/18 05:16:36;;;;;;;9.23;4.70;;;;;;;;;;5079972;28;20472;-63
2023/07/18 05:19:03;;;;;;;7.77;5.17;;;;;;;;;;5079530;28;20490;-63
2023/07/18 05:21:33;;;;;;;8.57;5.00;;;;;;;;;;5080373;28;20444;-63
2023/07/18 05:23:59;;;;;;;8.10;4.70;;;;;;;;;;5080135;28;20460;-63
2023/07/18 05:26:26;;;;;;;6.00;4.47;;;;;;;;;;5079675;28;20452;-63
2023/07/18 05:28:52;;;;;;;7.00;4.53;;;;;;;;;;5080570;28;20455;-64
2023/07/18 05:31:19;;;;;;;7.30;4.40;;;;;;;;;;5080193;28;20483;-63
2023/07/18 05:33:45;;;;;;;7.67;4.70;;;;;;;;;;5079329;28;20447;-63
2023/07/18 05:36:11;;;;;;;8.10;4.67;;;;;;;;;;5079293;28;20499;-64
2023/07/18 05:38:39;;;;;;;8.83;4.53;;;;;;;;;;5080133;28;20482;-64
2023/07/18 05:41:05;;;;;;;8.80;4.33;;;;;;;;;;5073561;28;20805;-63
2023/07/18 05:43:32;;;;;;;8.00;4.60;;;;;;;;;;5079732;28;20440;-63
2023/07/18 05:45:58;;;;;;;7.30;4.63;;;;;;;;;;5079542;28;20825;-63
2023/07/18 05:48:25;;;;;;;10.33;4.77;;;;;;;;;;5079529;28;20460;-63
2023/07/18 05:50:51;;;;;;;8.40;4.93;;;;;;;;;;5068603;28;20511;-63
2023/07/18 05:53:17;;;;;;;8.20;4.17;;;;;;;;;;5079781;28;20475;-63
2023/07/18 05:55:46;;;;;;;8.90;4.50;;;;;;;;;;5078417;28;20531;-63
2023/07/18 05:58:12;;;;;;;5.40;4.10;;;;;;;;;;5079520;28;20487;-63
2023/07/18 06:00:39;;;;;;;7.20;3.93;;;;;;;;;;5079786;28;20483;-63
2023/07/18 06:03:06;;;;;;;7.60;4.10;;;;;;;;;;5078760;28;20526;-63
2023/07/18 06:05:32;;;;;;;12.63;5.00;;;;;;;;;;5078658;28;20519;-63
2023/07/18 06:07:58;;;;;;;6.33;3.67;;;;;;;;;;5079539;28;20479;-63
2023/07/18 06:10:25;;;;;;;6.77;4.60;;;;;;;;;;5078417;28;20464;-62
2023/07/18 06:12:53;;;;;;;9.93;4.40;;;;;;;;;;5079504;28;20486;-63
2023/07/18 06:15:19;;;;;;;5.67;4.27;;;;;;;;;;5079004;28;20463;-63
2023/07/18 06:17:46;;;;;;;5.40;3.93;;;;;;;;;;5078214;28;20483;-66
2023/07/18 06:20:13;;;;;;;6.73;4.07;;;;;;;;;;5078983;28;20499;-63
2023/07/18 06:22:39;;;;;;;7.50;4.30;;;;;;;;;;5079535;28;20511;-63
2023/07/18 06:25:06;;;;;;;6.70;3.70;;;;;;;;;;5078031;28;20452;-63
2023/07/18 06:27:33;;;;;;;6.50;3.30;;;;;;;;;;5079057;28;21012;-63
2023/07/18 06:30:08;;;;;;;10.00;3.77;;;;;;;;;;5079214;28;20486;-63
2023/07/18 06:32:35;;;;;;;9.40;3.93;;;;;;;;;;5073925;28;20447;-63
2023/07/18 06:35:02;;;;;;;9.43;4.17;;;;;;;;;;5078304;28;20517;-63
2023/07/18 06:37:29;;;;;;;8.83;4.00;;;;;;;;;;5078218;28;20487;-63
2023/07/18 06:39:55;;;;;;;8.80;4.70;;;;;;;;;;5078108;28;20551;-63
2023/07/18 06:42:22;;;;;;;6.87;4.10;;;;;;;;;;5079098;28;20491;-63
2023/07/18 06:44:48;;;;;;;8.20;4.23;;;;;;;;;;5078835;28;20515;-63
2023/07/18 06:47:16;;;;;;;6.70;4.57;;;;;;;;;;5077951;28;20499;-63
2023/07/18 06:49:42;;;;;;;4.87;4.13;;;;;;;;;;5078745;28;20472;-63
2023/07/18 06:52:11;;;;;;;7.70;4.67;;;;;;;;;;5078794;28;20543;-63
2023/07/18 06:54:38;;;;;;;7.30;4.10;;;;;;;;;;5077742;28;20733;-63
2023/07/18 06:57:04;;;;;;;6.57;4.07;;;;;;;;;;5077783;28;20563;-63
2023/07/18 06:59:31;;;;;;;7.70;4.50;;;;;;;;;;5078843;28;20455;-63
2023/07/18 07:01:57;;;;;;;6.03;4.40;;;;;;;;;;5078130;28;20452;-63
2023/07/18 07:04:25;;;;;;;6.37;4.20;;;;;;;;;;5078612;28;20463;-63
2023/07/18 07:06:52;;;;;;;7.67;4.30;;;;;;;;;;5078014;28;20444;-63
2023/07/18 07:09:18;;;;;;;7.07;4.30;;;;;;;;;;5072454;28;20462;-63
2023/07/18 07:11:44;;;;;;;8.10;4.30;;;;;;;;;;5078091;28;20527;-63
2023/07/18 07:14:11;;;;;;;7.73;4.00;;;;;;;;;;5077909;28;20811;-63
2023/07/18 07:16:38;;;;;;;6.23;3.87;;;;;;;;;;5077852;28;20487;-63
2023/07/18 07:19:05;;;;;;;7.03;3.50;;;;;;;;;;5078720;28;20472;-63
2023/07/18 07:21:33;;;;;;;7.23;3.93;;;;;;;;;;5078472;28;20451;-63
2023/07/18 07:23:59;;;;;;;7.23;3.70;;;;;;;;;;5078318;28;20452;-63
2023/07/18 07:26:26;;;;;;;6.97;3.60;;;;;;;;;;5077790;28;20490;-64
2023/07/18 07:28:52;;;;;;;10.13;4.07;;;;;;;;;;5078785;28;20444;-63
2023/07/18 07:31:18;;;;;;;5.83;3.17;;;;;;;;;;5075374;28;20879;-63
2023/07/18 07:33:45;;;;;;;6.67;3.80;;;;;;;;;;5072867;28;20639;-63
2023/07/18 07:36:11;;;;;;;12.37;3.80;;;;;;;;;;5077683;28;20535;-63
2023/07/18 07:38:39;;;;;;;5.60;3.53;;;;;;;;;;5078544;28;20503;-63
2023/07/18 07:41:06;;;;;;;6.00;3.10;;;;;;;;;;5077223;28;21028;-63
2023/07/18 07:43:32;;;;;;;5.17;3.53;;;;;;;;;;5078222;28;20475;-63
2023/07/18 07:45:59;;;;;;;4.77;3.67;;;;;;;;;;5077887;28;20462;-63
2023/07/18 07:48:25;;;;;;;6.83;3.00;;;;;;;;;;5077640;28;20468;-63
2023/07/18 07:50:52;;;;;;;4.20;2.97;;;;;;;;;;5078333;28;20472;-63
2023/07/18 07:53:18;;;;;;;4.50;3.03;;;;;;;;;;5078029;28;20487;-63
2023/07/18 07:55:46;;;;;;;9.30;3.80;;;;;;;;;;5076954;28;20480;-63
2023/07/18 07:58:12;;;;;;;6.83;3.60;;;;;;;;;;5077997;28;20625;-63
2023/07/18 08:00:39;;;;;;;4.80;3.23;;;;;;;;;;5077725;28;20509;-63
2023/07/18 08:03:05;;;;;;;6.60;3.50;;;;;;;;;;5077545;28;20459;-63
2023/07/18 08:05:32;;;;;;;5.83;3.33;;;;;;;;;;5076958;28;20482;-63
2023/07/18 08:07:58;;;;;;;8.93;3.60;;;;;;;;;;5076812;28;20524;-63
2023/07/18 08:10:24;;;;;;;7.47;3.63;;;;;;;;;;5080605;28;20971;-63
2023/07/18 08:12:52;;;;;;;6.10;3.20;;;;;;;;;;5081990;28;20511;-63
2023/07/18 08:15:19;;;;;;;7.80;3.50;;;;;;;;;;5081410;28;20485;-63
2023/07/18 08:17:45;;;;;;;5.73;3.87;;;;;;;;;;5080385;28;20483;-63
2023/07/18 08:20:12;;;;;;;7.00;3.17;;;;;;;;;;5081092;28;20988;-63
2023/07/18 08:22:39;;;;;;;8.57;3.40;;;;;;;;;;5081340;28;20460;-63
2023/07/18 08:25:05;;;;;;;7.30;3.40;;;;;;;;;;5080433;28;20479;-63
2023/07/18 08:27:32;;;;;;;5.90;3.17;;;;;;;;;;5081067;28;20523;-63
2023/07/18 08:30:00;;;;;;;10.10;4.00;;;;;;;;;;5081273;28;20475;-63
2023/07/18 08:32:29;;;;;;;7.23;3.60;;;;;;;;;;5080234;28;20447;-63
2023/07/18 08:34:56;;;;;;;8.57;3.57;;;;;;;;;;5080892;28;20487;-63
2023/07/18 08:37:22;;;;;;;7.60;3.50;;;;;;;;;;5072041;28;20578;-63
2023/07/18 08:39:49;;;;;;;6.80;3.70;;;;;;;;;;5079745;28;20498;-63
2023/07/18 08:42:15;;;;;;;7.10;3.83;;;;;;;;;;5081209;28;20471;-63
2023/07/18 08:44:42;;;;;;;6.53;3.73;;;;;;;;;;5080811;28;20552;-63
2023/07/18 08:47:10;;;;;;;8.50;4.10;;;;;;;;;;5080336;28;20476;-63
2023/07/18 08:49:39;;;;;;;7.47;4.17;;;;;;;;;;5080904;28;20892;-63
2023/07/18 08:52:06;;;;;;;8.23;4.43;;;;;;;;;;5080757;28;20544;-63
2023/07/18 08:54:33;;;;;;;7.90;4.33;;;;;;;;;;5079480;28;20540;-63
2023/07/18 08:57:00;;;;;;;6.00;3.53;;;;;;;;;;5080585;28;20511;-63
2023/07/18 08:59:27;;;;;;;5.00;3.63;;;;;;;;;;5080740;28;21013;-63
2023/07/18 09:01:53;;;;;;;7.30;3.60;;;;;;;;;;5080405;28;20463;-63
2023/07/18 09:04:21;;;;;;;5.93;3.57;;;;;;;;;;5080283;28;20451;-64
2023/07/18 09:06:48;;;;;;;7.77;3.60;;;;;;;;;;5075201;28;20468;-63
2023/07/18 09:09:15;;;;;;;6.03;3.70;;;;;;;;;;5079162;28;20476;-63
2023/07/18 09:11:52;;;;;;;10.73;3.47;;;;;;;;;;5080366;28;20459;-63
2023/07/18 09:14:22;;;;;;;5.17;3.23;;;;;;;;;;5077451;28;20479;-63
2023/07/18 09:16:49;;;;;;;7.33;3.20;;;;;;;;;;5079168;28;20452;-63
2023/07/18 09:19:14;;;;;;;8.33;3.23;;;;;;;;;;5079884;28;20486;-63
2023/07/18 09:21:42;;;;;;;6.77;3.40;;;;;;;;;;5080429;28;20475;-63
2023/07/18 09:24:08;;;;;;;6.83;3.33;;;;;;;;;;5079186;28;20281;-63
2023/07/18 09:26:34;;;;;;;5.40;3.37;;;;;;;;;;5079309;28;20705;-63
2023/07/18 09:29:01;;;;;;;5.27;3.10;;;;;;;;;;5080306;28;20771;-63
2023/07/18 09:31:28;;;;;;;6.90;3.27;;;;;;;;;;5079740;28;20513;-63
2023/07/18 09:33:55;;;;;;;5.80;3.60;;;;;;;;;;5074786;28;20582;-63
2023/07/18 09:36:22;;;;;;;5.50;3.10;;;;;;;;;;5079567;28;20475;-63
2023/07/18 09:38:50;;;;;;;7.97;3.53;;;;;;;;;;5079454;28;20507;-63
2023/07/18 09:41:17;;;;;;;5.03;2.80;;;;;;;;;;5079660;28;20914;-63
2023/07/18 09:43:44;;;;;;;6.33;3.23;;;;;;;;;;5079813;28;20673;-63
2023/07/18 09:46:11;;;;;;;5.30;2.90;;;;;;;;;;5079296;28;20452;-63
2023/07/18 09:48:38;;;;;;;5.90;3.00;;;;;;;;;;5079549;28;20474;-63
2023/07/18 09:51:08;;;;;;;3.73;2.40;;;;;;;;;;5080041;28;20444;-64
2023/07/18 09:53:35;;;;;;;5.13;2.83;;;;;;;;;;5078925;28;20948;-63
2023/07/18 09:56:02;;;;;;;8.00;2.90;;;;;;;;;;5079305;28;20452;-63
2023/07/18 09:58:30;;;;;;;5.50;2.60;;;;;;;;;;5079651;28;20483;-63
2023/07/18 10:00:57;;;;;;;6.37;2.60;;;;;;;;;;5075958;28;20444;-63
2023/07/18 10:03:23;;;;;;;4.93;2.70;;;;;;;;;;5079233;28;20530;-63
2023/07/18 10:05:50;;;;;;;4.20;2.00;;;;;;;;;;5078204;28;20484;-63
2023/07/18 10:08:17;;;;;;;5.30;2.30;;;;;;;;;;5079092;28;20517;-63
2023/07/18 10:10:59;;;;;;;6.10;1.97;;;;;;;;;;5078765;28;20456;-63
2023/07/18 10:13:27;;;;;;;3.60;2.27;;;;;;;;;;5079396;28;20607;-63
2023/07/18 10:16:12;;;;;;;5.40;2.20;;;;;;;;;;5078372;28;20763;-63
2023/07/18 10:18:43;;;;;;;3.90;2.20;;;;;;;;;;5079299;28;20552;-63
2023/07/18 10:21:12;;;;;;;4.30;2.00;;;;;;;;;;5075558;28;20479;-63
2023/07/18 10:23:39;;;;;;;3.17;1.90;;;;;;;;;;5069967;28;20479;-63
2023/07/18 10:26:06;;;;;;;2.50;1.83;;;;;;;;;;5078513;28;20462;-64
2023/07/18 10:28:43;;;;;;;3.70;1.90;;;;;;;;;;5079281;28;20455;-63
2023/07/18 10:31:26;;;;;;;4.20;2.40;;;;;;;;;;5077377;28;20458;-63
2023/07/18 10:34:05;;;;;;;3.70;1.97;;;;;;;;;;5078375;28;20473;-64
2023/07/18 10:36:32;;;;;;;3.87;2.00;;;;;;;;;;5077411;28;20515;-63
2023/07/18 10:38:58;;;;;;;6.20;2.37;;;;;;;;;;5078763;28;20583;-64
2023/07/18 10:41:25;;;;;;;3.63;1.87;;;;;;;;;;5078322;28;20558;-63
2023/07/18 10:43:52;;;;;;;3.57;1.90;;;;;;;;;;5078322;28;20480;-63
2023/07/18 10:46:19;;;;;;;3.37;1.70;;;;;;;;;;5078615;28;20822;-63
2023/07/18 10:48:49;;;;;;;4.43;2.17;;;;;;;;;;5071536;28;20455;-63
2023/07/18 10:51:16;;;;;;;3.37;1.83;;;;;;;;;;5078721;28;20442;-64
2023/07/18 10:53:44;;;;;;;4.53;2.13;;;;;;;;;;5078761;28;20459;-63
2023/07/18 10:56:19;;;;;;;4.87;2.30;;;;;;;;;;5078157;28;20456;-63
2023/07/18 10:58:46;;;;;;;6.07;2.23;;;;;;;;;;5078081;28;20469;-63
2023/07/18 11:01:15;;;;;;;4.43;1.90;;;;;;;;;;5078449;28;20516;-63
2023/07/18 11:03:45;;;;;;;2.70;1.63;;;;;;;;;;5078185;28;20544;-63
2023/07/18 11:06:13;;;;;;;2.87;1.70;;;;;;;;;;5070161;28;20521;-63
2023/07/18 11:08:40;;;;;;;3.00;1.90;;;;;;;;;;5078746;28;20458;-63
2023/07/18 11:11:06;;;;;;;4.43;1.60;;;;;;;;;;5078419;28;20456;-63
2023/07/18 11:13:33;;;;;;;3.93;1.87;;;;;;;;;;5078133;28;20512;-63
2023/07/18 11:16:02;;;;;;;3.50;1.83;;;;;;;;;;5066744;28;20862;-63
2023/07/18 11:18:33;;;;;;;2.70;1.50;;;;;;;;;;5078194;28;20563;-63
2023/07/18 11:21:02;;;;;;;3.30;1.60;;;;;;;;;;5077509;28;20761;-63
2023/07/18 11:23:28;;;;;;;4.33;1.57;;;;;;;;;;5078290;28;20456;-63
2023/07/18 11:25:55;;;;;;;3.73;1.40;;;;;;;;;;5077777;28;20484;-63
2023/07/18 11:28:21;;;;;;;2.17;1.13;;;;;;;;;;5078236;28;20948;-63
2023/07/18 11:30:48;;;;;;;3.37;1.27;;;;;;;;;;5078420;28;20492;-63
2023/07/18 11:33:14;;;;;;;3.17;1.50;;;;;;;;;;5078137;28;20456;-63
2023/07/18 11:35:47;;;;;;;2.90;1.60;;;;;;;;;;5076967;28;20510;-63
2023/07/18 11:38:17;;;;;;;5.00;1.40;;;;;;;;;;5078121;28;20544;-63
2023/07/18 11:40:43;;;;;;;2.80;1.37;;;;;;;;;;5077724;28;20475;-63
2023/07/18 11:43:17;;;;;;;2.33;1.07;;;;;;;;;;5079698;28;20447;-63
2023/07/18 11:45:43;;;;;;;4.20;1.60;;;;;;;;;;5081772;28;20452;-63
2023/07/18 11:48:10;;;;;;;2.43;1.33;;;;;;;;;;5081983;28;20459;-63
2023/07/18 11:50:36;;;;;;;2.57;1.60;;;;;;;;;;5081182;28;20479;-63
2023/07/18 11:53:04;;;;;;;1.40;1.07;;;;;;;;;;5081417;28;20534;-63
2023/07/18 11:55:32;;;;;;;2.67;1.43;;;;;;;;;;5081429;28;21929;-63
2023/07/18 11:57:58;;;;;;;2.67;1.10;;;;;;;;;;5081129;28;20553;-63
2023/07/18 12:00:25;;;;;;;3.60;1.40;;;;;;;;;;5081594;28;20452;-63
2023/07/18 12:02:52;;;;;;;3.87;1.13;;;;;;;;;;5081960;28;20795;-63
2023/07/18 12:05:18;;;;;;;1.70;1.23;;;;;;;;;;5080015;28;20440;-63
2023/07/18 12:07:45;;;;;;;2.47;1.20;;;;;;;;;;5081964;28;20459;-63
2023/07/18 12:10:14;;;;;;;2.50;1.13;;;;;;;;;;5081221;28;20459;-63
2023/07/18 12:12:41;;;;;;;5.27;1.53;;;;;;;;;;5081351;28;20452;-63
2023/07/18 12:15:07;;;;;;;2.93;1.20;;;;;;;;;;5081124;28;20460;-64
2023/07/18 12:17:34;;;;;;;2.30;1.37;;;;;;;;;;5081150;28;20487;-63
2023/07/18 12:20:00;;;;;;;4.67;1.30;;;;;;;;;;5079799;28;20550;-63
2023/07/18 12:22:27;;;;;;;1.77;1.10;;;;;;;;;;5081029;28;20872;-63
2023/07/18 12:24:53;;;;;;;2.43;1.23;;;;;;;;;;5080968;28;20502;-63
2023/07/18 12:27:21;;;;;;;3.50;1.00;;;;;;;;;;5081255;28;20452;-62
2023/07/18 12:29:48;;;;;;;2.10;1.20;;;;;;;;;;5080821;28;20467;-63
2023/07/18 12:32:14;;;;;;;2.07;1.27;;;;;;;;;;5080678;28;20547;-63
2023/07/18 12:34:41;;;;;;;3.67;1.30;;;;;;;;;;5080944;28;20538;-63
2023/07/18 12:37:08;;;;;;;2.10;1.23;;;;;;;;;;5080245;28;20527;-63
2023/07/18 12:39:34;;;;;;;4.37;1.23;;;;;;;;;;5080746;28;20525;-63
2023/07/18 12:42:01;;;;;;;2.50;1.43;;;;;;;;;;5080980;28;20472;-63
2023/07/18 12:44:39;;;;;;;2.13;1.20;;;;;;;;;;5080348;28;20554;-62
2023/07/18 12:47:06;;;;;;;4.27;1.60;;;;;;;;;;5081294;28;20952;-62
2023/07/18 12:49:32;;;;;;;4.07;1.27;;;;;;;;;;5080938;28;20444;-62
2023/07/18 12:51:58;;;;;;;3.23;1.30;;;;;;;;;;5080551;28;20463;-62
2023/07/18 12:54:25;;;;;;;3.27;1.17;;;;;;;;;;5079449;28;20466;-62
2023/07/18 12:56:51;;;;;;;3.30;1.60;;;;;;;;;;5080079;28;20796;-62
2023/07/18 12:59:18;;;;;;;2.17;1.17;;;;;;;;;;5080175;28;20555;-63
2023/07/18 13:01:45;;;;;;;2.43;1.40;;;;;;;;;;5071263;28;20460;-63
2023/07/18 13:04:12;;;;;;;2.33;1.20;;;;;;;;;;5080456;28;20474;-62
2023/07/18 13:06:38;;;;;;;2.63;1.50;;;;;;;;;;5079464;28;20463;-63
2023/07/18 13:09:05;;;;;;;2.27;1.50;;;;;;;;;;5080834;28;20440;-62
2023/07/18 13:11:31;;;;;;;3.40;1.77;;;;;;;;;;5080115;28;20502;-62
2023/07/18 13:13:57;;;;;;;3.50;1.40;;;;;;;;;;5079716;28;20474;-62
2023/07/18 13:16:24;;;;;;;2.83;1.50;;;;;;;;;;5079940;28;20480;-62
2023/07/18 13:18:52;;;;;;;3.30;1.00;;;;;;;;;;5080732;28;20503;-62
2023/07/18 13:21:18;;;;;;;4.10;1.50;;;;;;;;;;5079421;28;20532;-62
2023/07/18 13:23:47;;;;;;;1.83;1.00;;;;;;;;;;5080375;28;20507;-62
2023/07/18 13:26:15;;;;;;;3.37;1.50;;;;;;;;;;5079966;28;20758;-62
2023/07/18 13:28:42;;;;;;;4.57;1.20;;;;;;;;;;5079648;28;20436;-62
2023/07/18 13:31:09;;;;;;;3.70;1.10;;;;;;;;;;5079863;28;20459;-62
2023/07/18 13:33:35;;;;;;;2.83;1.30;;;;;;;;;;5079745;28;20475;-63
2023/07/18 13:36:04;;;;;;;2.77;1.40;;;;;;;;;;5067771;28;20901;-62
2023/07/18 13:38:31;;;;;;;3.33;1.20;;;;;;;;;;5079500;28;20529;-62
2023/07/18 13:40:59;;;;;;;6.70;1.83;;;;;;;;;;5079723;28;20552;-62
2023/07/18 13:43:27;;;;;;;2.80;1.07;;;;;;;;;;5079709;28;20474;-62
2023/07/18 13:45:53;;;;;;;3.17;1.50;;;;;;;;;;5080301;28;20456;-62
2023/07/18 13:48:20;;;;;;;3.53;1.63;;;;;;;;;;5079942;28;20552;-63
2023/07/18 13:50:46;;;;;;;3.43;1.30;;;;;;;;;;5079210;28;20448;-62
2023/07/18 13:53:14;;;;;;;4.50;1.60;;;;;;;;;;5079752;28;20525;-62
2023/07/18 13:55:40;;;;;;;4.10;1.80;;;;;;;;;;5075220;28;20478;-63
2023/07/18 13:58:06;;;;;;;2.20;1.60;;;;;;;;;;5079129;28;20456;-62
2023/07/18 14:00:33;;;;;;;2.70;1.53;;;;;;;;;;5079497;28;20543;-63
2023/07/18 14:03:01;;;;;;;2.03;1.23;;;;;;;;;;5079846;28;20785;-62
2023/07/18 14:05:28;;;;;;;2.27;1.50;;;;;;;;;;5078021;28;20733;-62
2023/07/18 14:07:54;;;;;;;4.70;1.80;;;;;;;;;;5079431;28;20487;-62
2023/07/18 14:10:24;;;;;;;2.30;1.40;;;;;;;;;;5078964;28;20488;-62
2023/07/18 14:12:50;;;;;;;3.80;1.50;;;;;;;;;;5078760;28;20749;-61
2023/07/18 14:15:17;;;;;;;3.27;1.43;;;;;;;;;;5079271;28;20545;-62
2023/07/18 14:17:43;;;;;;;1.70;1.30;;;;;;;;;;5078805;28;20479;-62
2023/07/18 14:20:10;;;;;;;2.70;1.33;;;;;;;;;;5078456;28;20511;-61
2023/07/18 14:22:36;;;;;;;2.27;1.10;;;;;;;;;;5078857;28;20937;-62
2023/07/18 14:25:03;;;;;;;2.50;1.37;;;;;;;;;;5074703;28;20523;-62
2023/07/18 14:27:30;;;;;;;1.60;1.10;;;;;;;;;;5078717;28;20565;-62
2023/07/18 14:29:57;;;;;;;3.70;1.47;;;;;;;;;;5079010;28;20471;-62
2023/07/18 14:32:23;;;;;;;3.23;1.33;;;;;;;;;;5079095;28;20480;-62
2023/07/18 14:34:50;;;;;;;3.80;1.30;;;;;;;;;;5077727;28;20553;-62
2023/07/18 14:37:16;;;;;;;2.80;1.40;;;;;;;;;;5078472;28;20857;-62
2023/07/18 14:39:43;;;;;;;3.30;1.60;;;;;;;;;;5078733;28;20510;-62